Terminal Aerodrome Forecast
Issued by NWS Quad Cities IA IL

Home | Current Version | Previous Version | Text Only | Print | Product List | Glossary On
Versions: 1 2 3 4 5 6 7 8 9 10 11 12 13 14 15 16 17 18 19 20 21
000
FTUS43 KDVN 280700 AAA
TAFDBQ
TAF AMD
KDBQ 280723Z 2807/2906 02016G23KT P6SM OVC045
     FM281200 01011KT P6SM SCT050
     FM290100 33004KT P6SM SKC=

USA.gov is the U.S. government's official web portal to all federal, state and local government web resources and services.